sensor_id;sensor_type;location;lat;lon;timestamp;P1;durP1;ratioP1;P2;durP2;ratioP2
69511;SDS011;70777;52.034;4.644;2024-02-23T00:02:14;5.20;;;1.40;;
69511;SDS011;70777;52.034;4.644;2024-02-23T00:04:39;12.35;;;1.65;;
69511;SDS011;70777;52.034;4.644;2024-02-23T00:07:05;7.40;;;1.40;;
69511;SDS011;70777;52.034;4.644;2024-02-23T00:09:30;10.23;;;1.67;;
69511;SDS011;70777;52.034;4.644;2024-02-23T00:11:56;16.58;;;2.03;;
69511;SDS011;70777;52.034;4.644;2024-02-23T00:14:21;7.45;;;1.58;;
69511;SDS011;70777;52.034;4.644;2024-02-23T00:16:47;6.43;;;1.30;;
69511;SDS011;70777;52.034;4.644;2024-02-23T00:19:13;11.32;;;1.83;;
69511;SDS011;70777;52.034;4.644;2024-02-23T00:21:38;5.75;;;1.48;;
69511;SDS011;70777;52.034;4.644;2024-02-23T00:24:04;5.43;;;1.35;;
69511;SDS011;70777;52.034;4.644;2024-02-23T00:26:30;9.55;;;1.40;;
69511;SDS011;70777;52.034;4.644;2024-02-23T00:28:56;12.95;;;1.38;;
69511;SDS011;70777;52.034;4.644;2024-02-23T00:31:21;3.83;;;1.20;;
69511;SDS011;70777;52.034;4.644;2024-02-23T00:33:47;8.95;;;2.25;;
69511;SDS011;70777;52.034;4.644;2024-02-23T00:36:12;10.40;;;1.95;;
69511;SDS011;70777;52.034;4.644;2024-02-23T00:38:38;6.88;;;1.90;;
69511;SDS011;70777;52.034;4.644;2024-02-23T00:41:03;9.48;;;1.75;;
69511;SDS011;70777;52.034;4.644;2024-02-23T00:43:28;11.35;;;2.15;;
69511;SDS011;70777;52.034;4.644;2024-02-23T00:45:54;12.57;;;1.60;;
69511;SDS011;70777;52.034;4.644;2024-02-23T00:48:20;13.13;;;2.00;;
69511;SDS011;70777;52.034;4.644;2024-02-23T00:50:45;5.80;;;1.50;;
69511;SDS011;70777;52.034;4.644;2024-02-23T00:53:11;10.25;;;1.70;;
69511;SDS011;70777;52.034;4.644;2024-02-23T00:55:37;13.73;;;1.90;;
69511;SDS011;70777;52.034;4.644;2024-02-23T00:58:02;12.95;;;1.48;;
69511;SDS011;70777;52.034;4.644;2024-02-23T01:00:28;5.35;;;1.23;;
69511;SDS011;70777;52.034;4.644;2024-02-23T01:02:54;11.18;;;1.58;;
69511;SDS011;70777;52.034;4.644;2024-02-23T01:05:19;7.47;;;1.40;;
69511;SDS011;70777;52.034;4.644;2024-02-23T01:07:45;9.63;;;1.88;;
69511;SDS011;70777;52.034;4.644;2024-02-23T01:10:10;8.30;;;1.70;;
69511;SDS011;70777;52.034;4.644;2024-02-23T01:12:35;8.57;;;1.73;;
69511;SDS011;70777;52.034;4.644;2024-02-23T01:15:01;9.23;;;1.38;;
69511;SDS011;70777;52.034;4.644;2024-02-23T01:17:26;7.88;;;1.92;;
69511;SDS011;70777;52.034;4.644;2024-02-23T01:19:52;10.15;;;2.05;;
69511;SDS011;70777;52.034;4.644;2024-02-23T01:22:17;15.48;;;1.92;;
69511;SDS011;70777;52.034;4.644;2024-02-23T01:24:42;16.20;;;1.55;;
69511;SDS011;70777;52.034;4.644;2024-02-23T01:27:08;8.00;;;1.42;;
69511;SDS011;70777;52.034;4.644;2024-02-23T01:29:33;6.65;;;2.17;;
69511;SDS011;70777;52.034;4.644;2024-02-23T01:31:59;7.55;;;1.60;;
69511;SDS011;70777;52.034;4.644;2024-02-23T01:34:25;11.68;;;2.15;;
69511;SDS011;70777;52.034;4.644;2024-02-23T01:36:50;6.60;;;1.13;;
69511;SDS011;70777;52.034;4.644;2024-02-23T01:39:15;6.90;;;1.58;;
69511;SDS011;70777;52.034;4.644;2024-02-23T01:41:41;5.35;;;1.35;;
69511;SDS011;70777;52.034;4.644;2024-02-23T01:44:08;6.88;;;1.80;;
69511;SDS011;70777;52.034;4.644;2024-02-23T01:46:34;10.07;;;1.45;;
69511;SDS011;70777;52.034;4.644;2024-02-23T01:49:00;10.45;;;1.50;;
69511;SDS011;70777;52.034;4.644;2024-02-23T01:51:26;3.90;;;1.48;;
69511;SDS011;70777;52.034;4.644;2024-02-23T01:53:51;10.60;;;2.15;;
69511;SDS011;70777;52.034;4.644;2024-02-23T01:56:17;9.95;;;1.75;;
69511;SDS011;70777;52.034;4.644;2024-02-23T01:58:43;10.05;;;1.98;;
69511;SDS011;70777;52.034;4.644;2024-02-23T02:01:09;7.63;;;1.73;;
69511;SDS011;70777;52.034;4.644;2024-02-23T02:03:35;6.18;;;1.52;;
69511;SDS011;70777;52.034;4.644;2024-02-23T02:06:02;10.45;;;2.03;;
69511;SDS011;70777;52.034;4.644;2024-02-23T02:08:28;13.00;;;1.58;;
69511;SDS011;70777;52.034;4.644;2024-02-23T02:10:53;14.85;;;2.15;;
69511;SDS011;70777;52.034;4.644;2024-02-23T02:13:19;9.52;;;1.30;;
69511;SDS011;70777;52.034;4.644;2024-02-23T02:15:44;11.80;;;2.03;;
69511;SDS011;70777;52.034;4.644;2024-02-23T02:18:10;8.75;;;1.60;;
69511;SDS011;70777;52.034;4.644;2024-02-23T02:20:36;13.10;;;1.75;;
69511;SDS011;70777;52.034;4.644;2024-02-23T02:23:01;9.70;;;1.77;;
69511;SDS011;70777;52.034;4.644;2024-02-23T02:25:27;8.93;;;1.42;;
69511;SDS011;70777;52.034;4.644;2024-02-23T02:27:53;15.23;;;1.95;;
69511;SDS011;70777;52.034;4.644;2024-02-23T02:30:18;9.23;;;1.27;;
69511;SDS011;70777;52.034;4.644;2024-02-23T02:32:43;10.75;;;1.38;;
69511;SDS011;70777;52.034;4.644;2024-02-23T02:35:12;6.80;;;1.40;;
69511;SDS011;70777;52.034;4.644;2024-02-23T02:37:37;9.40;;;1.55;;
69511;SDS011;70777;52.034;4.644;2024-02-23T02:40:04;5.97;;;1.40;;
69511;SDS011;70777;52.034;4.644;2024-02-23T02:42:30;10.50;;;1.85;;
69511;SDS011;70777;52.034;4.644;2024-02-23T02:44:56;6.88;;;1.55;;
69511;SDS011;70777;52.034;4.644;2024-02-23T02:47:21;5.97;;;1.67;;
69511;SDS011;70777;52.034;4.644;2024-02-23T02:49:46;6.07;;;1.40;;
69511;SDS011;70777;52.034;4.644;2024-02-23T02:52:13;11.90;;;1.45;;
69511;SDS011;70777;52.034;4.644;2024-02-23T02:54:39;3.75;;;1.08;;
69511;SDS011;70777;52.034;4.644;2024-02-23T02:57:04;8.20;;;1.75;;
69511;SDS011;70777;52.034;4.644;2024-02-23T02:59:33;11.20;;;1.50;;
69511;SDS011;70777;52.034;4.644;2024-02-23T03:01:59;6.10;;;1.35;;
69511;SDS011;70777;52.034;4.644;2024-02-23T03:04:24;13.30;;;1.63;;
69511;SDS011;70777;52.034;4.644;2024-02-23T03:06:50;4.93;;;1.58;;
69511;SDS011;70777;52.034;4.644;2024-02-23T03:09:15;7.90;;;2.30;;
69511;SDS011;70777;52.034;4.644;2024-02-23T03:11:40;7.75;;;1.42;;
69511;SDS011;70777;52.034;4.644;2024-02-23T03:14:06;7.45;;;1.45;;
69511;SDS011;70777;52.034;4.644;2024-02-23T03:16:32;7.72;;;1.45;;
69511;SDS011;70777;52.034;4.644;2024-02-23T03:18:59;9.07;;;1.48;;
69511;SDS011;70777;52.034;4.644;2024-02-23T03:21:24;11.18;;;1.33;;
69511;SDS011;70777;52.034;4.644;2024-02-23T03:23:50;15.60;;;1.90;;
69511;SDS011;70777;52.034;4.644;2024-02-23T03:26:15;8.85;;;1.40;;
69511;SDS011;70777;52.034;4.644;2024-02-23T03:28:42;8.87;;;1.60;;
69511;SDS011;70777;52.034;4.644;2024-02-23T03:31:07;6.28;;;1.30;;
69511;SDS011;70777;52.034;4.644;2024-02-23T03:33:33;10.52;;;1.63;;
69511;SDS011;70777;52.034;4.644;2024-02-23T03:35:58;7.82;;;1.38;;
69511;SDS011;70777;52.034;4.644;2024-02-23T03:38:24;6.15;;;1.40;;
69511;SDS011;70777;52.034;4.644;2024-02-23T03:40:49;5.22;;;1.23;;
69511;SDS011;70777;52.034;4.644;2024-02-23T03:43:15;7.88;;;1.55;;
69511;SDS011;70777;52.034;4.644;2024-02-23T03:45:40;10.73;;;1.35;;
69511;SDS011;70777;52.034;4.644;2024-02-23T03:48:05;15.77;;;1.70;;
69511;SDS011;70777;52.034;4.644;2024-02-23T03:50:31;5.63;;;1.58;;
69511;SDS011;70777;52.034;4.644;2024-02-23T03:52:57;4.35;;;1.33;;
69511;SDS011;70777;52.034;4.644;2024-02-23T03:55:22;7.13;;;1.55;;
69511;SDS011;70777;52.034;4.644;2024-02-23T03:57:48;10.10;;;1.52;;
69511;SDS011;70777;52.034;4.644;2024-02-23T04:00:14;8.50;;;1.38;;
69511;SDS011;70777;52.034;4.644;2024-02-23T04:02:40;14.50;;;1.70;;
69511;SDS011;70777;52.034;4.644;2024-02-23T04:05:06;8.88;;;2.28;;
69511;SDS011;70777;52.034;4.644;2024-02-23T04:07:31;6.95;;;1.67;;
69511;SDS011;70777;52.034;4.644;2024-02-23T04:09:57;10.30;;;1.73;;
69511;SDS011;70777;52.034;4.644;2024-02-23T04:12:22;11.07;;;1.52;;
69511;SDS011;70777;52.034;4.644;2024-02-23T04:14:48;9.95;;;1.52;;
69511;SDS011;70777;52.034;4.644;2024-02-23T04:17:13;5.68;;;1.52;;
69511;SDS011;70777;52.034;4.644;2024-02-23T04:19:40;12.18;;;2.03;;
69511;SDS011;70777;52.034;4.644;2024-02-23T04:22:06;5.85;;;1.38;;
69511;SDS011;70777;52.034;4.644;2024-02-23T04:24:34;6.75;;;1.27;;
69511;SDS011;70777;52.034;4.644;2024-02-23T04:27:01;4.13;;;1.37;;
69511;SDS011;70777;52.034;4.644;2024-02-23T04:29:27;11.75;;;1.92;;
69511;SDS011;70777;52.034;4.644;2024-02-23T04:31:52;7.10;;;1.60;;
69511;SDS011;70777;52.034;4.644;2024-02-23T04:34:18;7.55;;;1.70;;
69511;SDS011;70777;52.034;4.644;2024-02-23T04:36:43;12.48;;;1.45;;
69511;SDS011;70777;52.034;4.644;2024-02-23T04:39:08;7.22;;;1.52;;
69511;SDS011;70777;52.034;4.644;2024-02-23T04:41:34;5.47;;;1.27;;
69511;SDS011;70777;52.034;4.644;2024-02-23T04:43:59;7.35;;;1.70;;
69511;SDS011;70777;52.034;4.644;2024-02-23T04:46:26;7.53;;;2.03;;
69511;SDS011;70777;52.034;4.644;2024-02-23T04:48:52;13.98;;;1.60;;
69511;SDS011;70777;52.034;4.644;2024-02-23T04:51:17;7.15;;;1.25;;
69511;SDS011;70777;52.034;4.644;2024-02-23T04:53:43;6.10;;;2.03;;
69511;SDS011;70777;52.034;4.644;2024-02-23T04:56:09;8.52;;;1.75;;
69511;SDS011;70777;52.034;4.644;2024-02-23T04:58:34;7.38;;;1.58;;
69511;SDS011;70777;52.034;4.644;2024-02-23T05:00:59;6.13;;;1.15;;
69511;SDS011;70777;52.034;4.644;2024-02-23T05:03:25;4.88;;;1.30;;
69511;SDS011;70777;52.034;4.644;2024-02-23T05:05:51;8.38;;;1.40;;
69511;SDS011;70777;52.034;4.644;2024-02-23T05:08:19;8.98;;;1.52;;
69511;SDS011;70777;52.034;4.644;2024-02-23T05:10:45;5.95;;;1.58;;
69511;SDS011;70777;52.034;4.644;2024-02-23T05:13:11;6.00;;;1.10;;
69511;SDS011;70777;52.034;4.644;2024-02-23T05:15:37;9.48;;;1.88;;
69511;SDS011;70777;52.034;4.644;2024-02-23T05:18:02;11.63;;;1.70;;
69511;SDS011;70777;52.034;4.644;2024-02-23T05:20:28;11.75;;;2.00;;
69511;SDS011;70777;52.034;4.644;2024-02-23T05:22:53;10.57;;;2.08;;
69511;SDS011;70777;52.034;4.644;2024-02-23T05:25:19;4.05;;;2.00;;
69511;SDS011;70777;52.034;4.644;2024-02-23T05:27:44;5.75;;;2.10;;
69511;SDS011;70777;52.034;4.644;2024-02-23T05:30:10;9.65;;;2.08;;
69511;SDS011;70777;52.034;4.644;2024-02-23T05:32:36;7.28;;;2.20;;
69511;SDS011;70777;52.034;4.644;2024-02-23T05:35:01;7.53;;;2.75;;
69511;SDS011;70777;52.034;4.644;2024-02-23T05:37:28;5.45;;;2.50;;
69511;SDS011;70777;52.034;4.644;2024-02-23T05:39:53;6.95;;;2.00;;
69511;SDS011;70777;52.034;4.644;2024-02-23T05:42:19;7.93;;;2.05;;
69511;SDS011;70777;52.034;4.644;2024-02-23T05:44:44;10.05;;;2.30;;
69511;SDS011;70777;52.034;4.644;2024-02-23T05:47:10;8.00;;;2.10;;
69511;SDS011;70777;52.034;4.644;2024-02-23T05:49:35;7.18;;;2.03;;
69511;SDS011;70777;52.034;4.644;2024-02-23T05:52:01;6.28;;;2.35;;
69511;SDS011;70777;52.034;4.644;2024-02-23T05:54:26;10.60;;;2.85;;
69511;SDS011;70777;52.034;4.644;2024-02-23T05:56:52;5.35;;;2.33;;
69511;SDS011;70777;52.034;4.644;2024-02-23T05:59:17;9.15;;;2.63;;
69511;SDS011;70777;52.034;4.644;2024-02-23T06:01:42;6.63;;;2.38;;
69511;SDS011;70777;52.034;4.644;2024-02-23T06:04:08;11.25;;;2.83;;
69511;SDS011;70777;52.034;4.644;2024-02-23T06:06:34;10.52;;;3.67;;
69511;SDS011;70777;52.034;4.644;2024-02-23T06:08:59;7.35;;;2.88;;
69511;SDS011;70777;52.034;4.644;2024-02-23T06:11:25;10.95;;;2.88;;
69511;SDS011;70777;52.034;4.644;2024-02-23T06:13:51;12.73;;;3.80;;
69511;SDS011;70777;52.034;4.644;2024-02-23T06:16:16;6.20;;;2.75;;
69511;SDS011;70777;52.034;4.644;2024-02-23T06:18:41;6.78;;;2.75;;
69511;SDS011;70777;52.034;4.644;2024-02-23T06:23:39;12.77;;;2.70;;
69511;SDS011;70777;52.034;4.644;2024-02-23T06:26:04;5.80;;;2.55;;
69511;SDS011;70777;52.034;4.644;2024-02-23T06:28:30;13.73;;;3.00;;
69511;SDS011;70777;52.034;4.644;2024-02-23T06:30:56;10.80;;;2.47;;
69511;SDS011;70777;52.034;4.644;2024-02-23T06:33:21;11.55;;;2.72;;
69511;SDS011;70777;52.034;4.644;2024-02-23T06:35:46;7.35;;;2.80;;
69511;SDS011;70777;52.034;4.644;2024-02-23T06:38:12;9.20;;;2.90;;
69511;SDS011;70777;52.034;4.644;2024-02-23T06:40:37;9.65;;;2.92;;
69511;SDS011;70777;52.034;4.644;2024-02-23T06:43:02;5.57;;;2.33;;
69511;SDS011;70777;52.034;4.644;2024-02-23T06:45:28;7.32;;;2.85;;
69511;SDS011;70777;52.034;4.644;2024-02-23T06:47:53;7.25;;;2.75;;
69511;SDS011;70777;52.034;4.644;2024-02-23T06:50:19;8.40;;;3.08;;
69511;SDS011;70777;52.034;4.644;2024-02-23T06:52:44;9.23;;;3.55;;
69511;SDS011;70777;52.034;4.644;2024-02-23T06:55:10;6.20;;;3.20;;
69511;SDS011;70777;52.034;4.644;2024-02-23T06:57:35;6.30;;;2.72;;
69511;SDS011;70777;52.034;4.644;2024-02-23T07:00:01;9.80;;;2.85;;
69511;SDS011;70777;52.034;4.644;2024-02-23T07:02:27;14.52;;;2.75;;
69511;SDS011;70777;52.034;4.644;2024-02-23T07:04:56;9.27;;;3.25;;
69511;SDS011;70777;52.034;4.644;2024-02-23T07:07:23;8.23;;;2.70;;
69511;SDS011;70777;52.034;4.644;2024-02-23T07:09:49;8.65;;;3.70;;
69511;SDS011;70777;52.034;4.644;2024-02-23T07:12:15;9.73;;;2.53;;
69511;SDS011;70777;52.034;4.644;2024-02-23T07:14:40;8.60;;;2.78;;
69511;SDS011;70777;52.034;4.644;2024-02-23T07:17:06;6.70;;;2.72;;
69511;SDS011;70777;52.034;4.644;2024-02-23T07:19:33;5.78;;;2.80;;
69511;SDS011;70777;52.034;4.644;2024-02-23T07:21:58;10.23;;;2.60;;
69511;SDS011;70777;52.034;4.644;2024-02-23T07:24:23;9.35;;;2.50;;
69511;SDS011;70777;52.034;4.644;2024-02-23T07:26:50;9.90;;;2.30;;
69511;SDS011;70777;52.034;4.644;2024-02-23T07:29:15;9.68;;;2.90;;
69511;SDS011;70777;52.034;4.644;2024-02-23T07:31:41;6.10;;;2.50;;
69511;SDS011;70777;52.034;4.644;2024-02-23T07:34:06;6.50;;;2.30;;
69511;SDS011;70777;52.034;4.644;2024-02-23T07:36:31;11.82;;;2.60;;
69511;SDS011;70777;52.034;4.644;2024-02-23T07:38:57;8.35;;;2.20;;
69511;SDS011;70777;52.034;4.644;2024-02-23T07:41:22;6.72;;;2.35;;
69511;SDS011;70777;52.034;4.644;2024-02-23T07:43:48;10.23;;;2.97;;
69511;SDS011;70777;52.034;4.644;2024-02-23T07:46:14;10.90;;;2.50;;
69511;SDS011;70777;52.034;4.644;2024-02-23T07:48:39;5.55;;;2.47;;
69511;SDS011;70777;52.034;4.644;2024-02-23T07:51:05;12.93;;;2.58;;
69511;SDS011;70777;52.034;4.644;2024-02-23T07:53:30;7.72;;;2.10;;
69511;SDS011;70777;52.034;4.644;2024-02-23T07:55:56;6.25;;;2.20;;
69511;SDS011;70777;52.034;4.644;2024-02-23T07:58:24;7.07;;;2.47;;
69511;SDS011;70777;52.034;4.644;2024-02-23T08:00:51;8.68;;;2.67;;
69511;SDS011;70777;52.034;4.644;2024-02-23T08:03:17;6.80;;;1.90;;
69511;SDS011;70777;52.034;4.644;2024-02-23T08:05:43;10.93;;;2.38;;
69511;SDS011;70777;52.034;4.644;2024-02-23T08:08:08;7.05;;;2.20;;
69511;SDS011;70777;52.034;4.644;2024-02-23T08:10:34;5.82;;;1.92;;
69511;SDS011;70777;52.034;4.644;2024-02-23T08:12:59;8.35;;;2.70;;
69511;SDS011;70777;52.034;4.644;2024-02-23T08:15:25;7.97;;;2.97;;
69511;SDS011;70777;52.034;4.644;2024-02-23T08:17:50;11.52;;;2.60;;
69511;SDS011;70777;52.034;4.644;2024-02-23T08:20:15;13.25;;;2.78;;
69511;SDS011;70777;52.034;4.644;2024-02-23T08:22:41;12.50;;;2.42;;
69511;SDS011;70777;52.034;4.644;2024-02-23T08:25:06;8.18;;;2.38;;
69511;SDS011;70777;52.034;4.644;2024-02-23T08:27:32;8.57;;;2.63;;
69511;SDS011;70777;52.034;4.644;2024-02-23T08:29:58;9.65;;;2.70;;
69511;SDS011;70777;52.034;4.644;2024-02-23T08:32:24;6.22;;;2.10;;
69511;SDS011;70777;52.034;4.644;2024-02-23T08:34:49;5.30;;;2.03;;
69511;SDS011;70777;52.034;4.644;2024-02-23T08:37:17;8.80;;;2.63;;
69511;SDS011;70777;52.034;4.644;2024-02-23T08:39:43;7.57;;;2.45;;
69511;SDS011;70777;52.034;4.644;2024-02-23T08:42:09;14.15;;;2.97;;
69511;SDS011;70777;52.034;4.644;2024-02-23T08:44:35;6.57;;;1.92;;
69511;SDS011;70777;52.034;4.644;2024-02-23T08:47:01;5.70;;;2.00;;
69511;SDS011;70777;52.034;4.644;2024-02-23T08:49:27;9.75;;;2.20;;
69511;SDS011;70777;52.034;4.644;2024-02-23T08:51:52;5.88;;;2.00;;
69511;SDS011;70777;52.034;4.644;2024-02-23T08:54:17;7.18;;;2.28;;
69511;SDS011;70777;52.034;4.644;2024-02-23T08:56:43;7.75;;;2.10;;
69511;SDS011;70777;52.034;4.644;2024-02-23T08:59:09;12.15;;;2.50;;
69511;SDS011;70777;52.034;4.644;2024-02-23T09:01:34;7.03;;;2.30;;
69511;SDS011;70777;52.034;4.644;2024-02-23T09:04:00;7.85;;;2.38;;
69511;SDS011;70777;52.034;4.644;2024-02-23T09:06:26;8.63;;;2.42;;
69511;SDS011;70777;52.034;4.644;2024-02-23T09:08:51;7.18;;;2.40;;
69511;SDS011;70777;52.034;4.644;2024-02-23T09:11:17;9.40;;;2.63;;
69511;SDS011;70777;52.034;4.644;2024-02-23T09:13:42;6.82;;;1.95;;
69511;SDS011;70777;52.034;4.644;2024-02-23T09:16:08;13.45;;;2.38;;
69511;SDS011;70777;52.034;4.644;2024-02-23T09:18:34;5.30;;;2.13;;
69511;SDS011;70777;52.034;4.644;2024-02-23T09:21:00;6.75;;;2.00;;
69511;SDS011;70777;52.034;4.644;2024-02-23T09:23:25;4.32;;;1.88;;
69511;SDS011;70777;52.034;4.644;2024-02-23T09:25:51;4.28;;;1.70;;
69511;SDS011;70777;52.034;4.644;2024-02-23T09:28:16;8.38;;;1.77;;
69511;SDS011;70777;52.034;4.644;2024-02-23T09:30:42;7.30;;;1.58;;
69511;SDS011;70777;52.034;4.644;2024-02-23T09:33:07;5.03;;;1.52;;
69511;SDS011;70777;52.034;4.644;2024-02-23T09:35:33;5.18;;;2.10;;
69511;SDS011;70777;52.034;4.644;2024-02-23T09:37:58;8.20;;;2.97;;
69511;SDS011;70777;52.034;4.644;2024-02-23T09:40:24;7.30;;;2.00;;
69511;SDS011;70777;52.034;4.644;2024-02-23T09:42:58;6.35;;;1.85;;
69511;SDS011;70777;52.034;4.644;2024-02-23T09:45:24;6.63;;;1.90;;
69511;SDS011;70777;52.034;4.644;2024-02-23T09:50:17;8.38;;;2.03;;
69511;SDS011;70777;52.034;4.644;2024-02-23T09:52:46;8.40;;;2.08;;
69511;SDS011;70777;52.034;4.644;2024-02-23T09:55:12;7.80;;;1.70;;
69511;SDS011;70777;52.034;4.644;2024-02-23T09:57:37;4.35;;;2.17;;
69511;SDS011;70777;52.034;4.644;2024-02-23T10:00:03;6.38;;;2.05;;
69511;SDS011;70777;52.034;4.644;2024-02-23T10:02:31;10.45;;;2.40;;
69511;SDS011;70777;52.034;4.644;2024-02-23T10:04:57;7.45;;;2.03;;
69511;SDS011;70777;52.034;4.644;2024-02-23T10:09:50;8.13;;;2.30;;
69511;SDS011;70777;52.034;4.644;2024-02-23T10:12:16;5.15;;;2.40;;
69511;SDS011;70777;52.034;4.644;2024-02-23T10:14:41;10.70;;;2.20;;
69511;SDS011;70777;52.034;4.644;2024-02-23T10:17:07;10.45;;;2.53;;
69511;SDS011;70777;52.034;4.644;2024-02-23T10:19:33;8.25;;;2.10;;
69511;SDS011;70777;52.034;4.644;2024-02-23T10:21:59;6.10;;;2.08;;
69511;SDS011;70777;52.034;4.644;2024-02-23T10:24:24;10.85;;;2.05;;
69511;SDS011;70777;52.034;4.644;2024-02-23T10:26:51;5.15;;;1.45;;
69511;SDS011;70777;52.034;4.644;2024-02-23T10:29:16;4.53;;;1.80;;
69511;SDS011;70777;52.034;4.644;2024-02-23T10:31:42;11.90;;;2.40;;
69511;SDS011;70777;52.034;4.644;2024-02-23T10:34:09;5.33;;;1.40;;
69511;SDS011;70777;52.034;4.644;2024-02-23T10:36:37;5.55;;;1.80;;
69511;SDS011;70777;52.034;4.644;2024-02-23T10:39:07;4.75;;;1.65;;
69511;SDS011;70777;52.034;4.644;2024-02-23T10:41:35;4.43;;;1.77;;
69511;SDS011;70777;52.034;4.644;2024-02-23T10:44:02;6.25;;;1.85;;
69511;SDS011;70777;52.034;4.644;2024-02-23T10:46:30;7.03;;;1.80;;
69511;SDS011;70777;52.034;4.644;2024-02-23T10:48:56;6.40;;;1.70;;
69511;SDS011;70777;52.034;4.644;2024-02-23T10:51:24;8.40;;;1.42;;
69511;SDS011;70777;52.034;4.644;2024-02-23T10:53:50;8.15;;;1.83;;
69511;SDS011;70777;52.034;4.644;2024-02-23T10:56:15;4.93;;;1.23;;
69511;SDS011;70777;52.034;4.644;2024-02-23T10:58:41;5.53;;;1.52;;
69511;SDS011;70777;52.034;4.644;2024-02-23T11:01:07;4.80;;;1.13;;
69511;SDS011;70777;52.034;4.644;2024-02-23T11:03:34;4.68;;;1.08;;
69511;SDS011;70777;52.034;4.644;2024-02-23T11:06:02;6.07;;;1.40;;
69511;SDS011;70777;52.034;4.644;2024-02-23T11:08:28;2.40;;;1.15;;
69511;SDS011;70777;52.034;4.644;2024-02-23T11:10:54;3.35;;;0.90;;
69511;SDS011;70777;52.034;4.644;2024-02-23T11:13:38;6.82;;;2.10;;
69511;SDS011;70777;52.034;4.644;2024-02-23T11:16:07;5.18;;;1.35;;
69511;SDS011;70777;52.034;4.644;2024-02-23T11:18:36;5.88;;;1.30;;
69511;SDS011;70777;52.034;4.644;2024-02-23T11:21:04;4.50;;;1.23;;
69511;SDS011;70777;52.034;4.644;2024-02-23T11:23:47;6.57;;;1.40;;
69511;SDS011;70777;52.034;4.644;2024-02-23T11:26:16;5.20;;;2.08;;
69511;SDS011;70777;52.034;4.644;2024-02-23T11:28:51;2.38;;;1.10;;
69511;SDS011;70777;52.034;4.644;2024-02-23T11:31:22;3.10;;;1.15;;
69511;SDS011;70777;52.034;4.644;2024-02-23T11:33:55;6.68;;;1.38;;
69511;SDS011;70777;52.034;4.644;2024-02-23T11:36:28;8.20;;;1.02;;
69511;SDS011;70777;52.034;4.644;2024-02-23T11:38:54;11.07;;;1.10;;
69511;SDS011;70777;52.034;4.644;2024-02-23T11:41:22;4.68;;;1.25;;
69511;SDS011;70777;52.034;4.644;2024-02-23T11:43:48;4.00;;;1.42;;
69511;SDS011;70777;52.034;4.644;2024-02-23T11:46:15;3.38;;;1.23;;
69511;SDS011;70777;52.034;4.644;2024-02-23T11:48:41;7.25;;;1.35;;
69511;SDS011;70777;52.034;4.644;2024-02-23T11:51:06;5.10;;;1.60;;
69511;SDS011;70777;52.034;4.644;2024-02-23T11:53:32;3.85;;;1.30;;
69511;SDS011;70777;52.034;4.644;2024-02-23T11:55:58;4.88;;;1.60;;
69511;SDS011;70777;52.034;4.644;2024-02-23T11:58:23;2.67;;;0.85;;
69511;SDS011;70777;52.034;4.644;2024-02-23T12:00:50;4.80;;;1.10;;
69511;SDS011;70777;52.034;4.644;2024-02-23T12:05:42;5.72;;;0.80;;
69511;SDS011;70777;52.034;4.644;2024-02-23T12:08:08;6.43;;;1.65;;
69511;SDS011;70777;52.034;4.644;2024-02-23T12:10:33;7.85;;;1.42;;
69511;SDS011;70777;52.034;4.644;2024-02-23T12:13:02;7.82;;;1.30;;
69511;SDS011;70777;52.034;4.644;2024-02-23T12:15:28;3.28;;;0.82;;
69511;SDS011;70777;52.034;4.644;2024-02-23T12:17:53;3.08;;;1.20;;
69511;SDS011;70777;52.034;4.644;2024-02-23T12:20:19;6.05;;;1.20;;
69511;SDS011;70777;52.034;4.644;2024-02-23T12:22:46;4.73;;;1.30;;
69511;SDS011;70777;52.034;4.644;2024-02-23T12:25:12;4.70;;;1.48;;
69511;SDS011;70777;52.034;4.644;2024-02-23T12:27:38;7.45;;;1.30;;
69511;SDS011;70777;52.034;4.644;2024-02-23T12:30:03;4.07;;;1.13;;
69511;SDS011;70777;52.034;4.644;2024-02-23T12:32:29;4.33;;;1.07;;
69511;SDS011;70777;52.034;4.644;2024-02-23T12:34:55;4.18;;;1.30;;
69511;SDS011;70777;52.034;4.644;2024-02-23T12:37:21;4.07;;;1.10;;
69511;SDS011;70777;52.034;4.644;2024-02-23T12:42:13;6.27;;;1.33;;
69511;SDS011;70777;52.034;4.644;2024-02-23T12:44:39;4.57;;;1.10;;
69511;SDS011;70777;52.034;4.644;2024-02-23T12:47:04;3.92;;;1.25;;
69511;SDS011;70777;52.034;4.644;2024-02-23T12:49:30;6.97;;;0.98;;
69511;SDS011;70777;52.034;4.644;2024-02-23T12:51:56;2.08;;;1.13;;
69511;SDS011;70777;52.034;4.644;2024-02-23T12:54:21;5.35;;;1.40;;
69511;SDS011;70777;52.034;4.644;2024-02-23T12:56:47;5.55;;;1.40;;
69511;SDS011;70777;52.034;4.644;2024-02-23T12:59:12;3.13;;;1.35;;
69511;SDS011;70777;52.034;4.644;2024-02-23T13:01:37;10.57;;;1.73;;
69511;SDS011;70777;52.034;4.644;2024-02-23T13:04:04;4.78;;;1.50;;
69511;SDS011;70777;52.034;4.644;2024-02-23T13:06:38;6.55;;;1.75;;
69511;SDS011;70777;52.034;4.644;2024-02-23T13:09:04;5.65;;;1.65;;
69511;SDS011;70777;52.034;4.644;2024-02-23T13:11:30;5.40;;;1.38;;
69511;SDS011;70777;52.034;4.644;2024-02-23T13:13:56;3.70;;;1.02;;
69511;SDS011;70777;52.034;4.644;2024-02-23T13:16:21;4.03;;;1.15;;
69511;SDS011;70777;52.034;4.644;2024-02-23T13:18:47;7.05;;;1.88;;
69511;SDS011;70777;52.034;4.644;2024-02-23T13:21:13;3.80;;;1.00;;
69511;SDS011;70777;52.034;4.644;2024-02-23T13:23:39;4.93;;;1.27;;
69511;SDS011;70777;52.034;4.644;2024-02-23T13:26:04;6.45;;;1.20;;
69511;SDS011;70777;52.034;4.644;2024-02-23T13:28:30;5.13;;;1.23;;
69511;SDS011;70777;52.034;4.644;2024-02-23T13:30:56;5.35;;;1.10;;
69511;SDS011;70777;52.034;4.644;2024-02-23T13:33:21;4.32;;;1.00;;
69511;SDS011;70777;52.034;4.644;2024-02-23T13:35:48;1.77;;;0.80;;
69511;SDS011;70777;52.034;4.644;2024-02-23T13:38:14;2.53;;;0.85;;
69511;SDS011;70777;52.034;4.644;2024-02-23T13:40:39;3.40;;;1.10;;
69511;SDS011;70777;52.034;4.644;2024-02-23T13:43:05;8.13;;;1.15;;
69511;SDS011;70777;52.034;4.644;2024-02-23T13:45:30;3.15;;;0.68;;
69511;SDS011;70777;52.034;4.644;2024-02-23T13:47:57;3.67;;;0.80;;
69511;SDS011;70777;52.034;4.644;2024-02-23T13:50:23;4.82;;;1.20;;
69511;SDS011;70777;52.034;4.644;2024-02-23T13:52:49;1.92;;;1.10;;
69511;SDS011;70777;52.034;4.644;2024-02-23T13:55:16;3.80;;;0.73;;
69511;SDS011;70777;52.034;4.644;2024-02-23T13:57:41;3.33;;;0.70;;
69511;SDS011;70777;52.034;4.644;2024-02-23T14:00:07;2.05;;;0.80;;
69511;SDS011;70777;52.034;4.644;2024-02-23T14:02:39;1.52;;;0.80;;
69511;SDS011;70777;52.034;4.644;2024-02-23T14:05:07;2.28;;;0.63;;
69511;SDS011;70777;52.034;4.644;2024-02-23T14:07:33;2.92;;;0.70;;
69511;SDS011;70777;52.034;4.644;2024-02-23T14:10:00;1.33;;;0.88;;
69511;SDS011;70777;52.034;4.644;2024-02-23T14:12:26;0.60;;;0.60;;
69511;SDS011;70777;52.034;4.644;2024-02-23T14:14:51;2.05;;;0.70;;
69511;SDS011;70777;52.034;4.644;2024-02-23T14:17:17;1.48;;;0.80;;
69511;SDS011;70777;52.034;4.644;2024-02-23T14:19:42;1.73;;;0.80;;
69511;SDS011;70777;52.034;4.644;2024-02-23T14:22:08;1.35;;;0.77;;
69511;SDS011;70777;52.034;4.644;2024-02-23T14:24:33;1.95;;;0.80;;
69511;SDS011;70777;52.034;4.644;2024-02-23T14:26:59;3.45;;;0.90;;
69511;SDS011;70777;52.034;4.644;2024-02-23T14:29:24;2.20;;;1.02;;
69511;SDS011;70777;52.034;4.644;2024-02-23T14:31:49;4.40;;;1.10;;
69511;SDS011;70777;52.034;4.644;2024-02-23T14:34:15;3.97;;;1.30;;
69511;SDS011;70777;52.034;4.644;2024-02-23T14:36:40;2.90;;;1.20;;
69511;SDS011;70777;52.034;4.644;2024-02-23T14:39:06;2.25;;;1.10;;
69511;SDS011;70777;52.034;4.644;2024-02-23T14:41:31;1.20;;;0.82;;
69511;SDS011;70777;52.034;4.644;2024-02-23T14:43:58;2.00;;;0.90;;
69511;SDS011;70777;52.034;4.644;2024-02-23T14:46:23;3.15;;;1.20;;
69511;SDS011;70777;52.034;4.644;2024-02-23T14:48:49;1.10;;;1.00;;
69511;SDS011;70777;52.034;4.644;2024-02-23T14:51:15;2.47;;;1.48;;